Terminal Aerodrome Forecast
Issued by NWS

Home | Current Version | Previous Version | Text Only | Print | Product List | Glossary On
Versions: 1 2 3 4 5 6 7 8 9 10 11 12 13 14 15 16 17
000
FTUS43 KILX 022338
TAFDEC
TAF
KDEC 022338Z 0300/0324 04007KT P6SM SCT035 BKN250
     FM030400 02006KT 6SM BR SCT012 OVC030
     FM031600 03007KT P6SM SCT012 BKN035
     FM032000 04007KT P6SM BKN040=

USA.gov is the U.S. government's official web portal to all federal, state and local government web resources and services.